createdAt,value
2018-06-19T00:00:02.356Z,59.89
2018-06-19T00:01:02.827Z,60.03
2018-06-19T00:02:03.303Z,60.17
2018-06-19T00:03:03.773Z,60.19
2018-06-19T00:04:04.245Z,60.22
2018-06-19T00:05:04.716Z,60.19
2018-06-19T00:06:05.188Z,60.21
2018-06-19T00:07:05.662Z,60.21
2018-06-19T00:08:06.136Z,60.18
2018-06-19T00:09:06.608Z,60.09
2018-06-19T00:10:07.084Z,60.15
2018-06-19T00:11:07.559Z,60.18
2018-06-19T00:12:08.027Z,60.20
2018-06-19T00:13:08.508Z,59.97
2018-06-19T00:14:08.977Z,59.94
2018-06-19T00:15:09.451Z,60.02
2018-06-19T00:16:09.935Z,60.16
2018-06-19T00:17:10.401Z,60.30
2018-06-19T00:18:10.873Z,60.41
2018-06-19T00:19:11.349Z,60.44
2018-06-19T00:20:11.823Z,60.58
2018-06-19T00:21:12.297Z,60.72
2018-06-19T00:22:12.772Z,60.72
2018-06-19T00:23:13.248Z,60.66
2018-06-19T00:24:13.726Z,60.77
2018-06-19T00:25:14.197Z,60.82
2018-06-19T00:26:14.722Z,60.94
2018-06-19T00:27:15.145Z,60.93
2018-06-19T00:28:15.619Z,61.16
2018-06-19T00:29:16.092Z,61.19
2018-06-19T00:30:16.568Z,61.21
2018-06-19T00:31:17.045Z,61.15
2018-06-19T00:32:17.515Z,61.35
2018-06-19T00:33:17.989Z,61.40
2018-06-19T00:34:18.462Z,61.43
2018-06-19T00:35:18.935Z,61.54
2018-06-19T00:36:19.459Z,61.68
2018-06-19T00:37:19.882Z,61.87
2018-06-19T00:38:20.354Z,61.87
2018-06-19T00:39:20.826Z,61.79
2018-06-19T00:40:21.299Z,61.48
2018-06-19T00:41:21.771Z,61.53
2018-06-19T00:42:22.244Z,61.75
2018-06-19T00:43:22.714Z,61.81
2018-06-19T00:44:23.188Z,61.78
2018-06-19T00:45:23.659Z,61.78
2018-06-19T00:46:24.128Z,61.94
2018-06-19T00:47:24.601Z,62.06
2018-06-19T00:48:25.073Z,61.94
2018-06-19T00:49:25.543Z,61.97
2018-06-19T00:50:26.148Z,62.11
2018-06-19T00:51:26.537Z,62.22
2018-06-19T00:52:26.956Z,62.36
2018-06-19T00:53:27.430Z,62.50
2018-06-19T00:54:27.905Z,62.55
2018-06-19T00:55:28.368Z,62.52
2018-06-19T00:56:28.858Z,62.41
2018-06-19T00:57:29.310Z,62.40
2018-06-19T00:58:29.780Z,62.43
2018-06-19T00:59:30.252Z,62.43
2018-06-19T01:00:30.724Z,62.51
2018-06-19T01:01:31.244Z,62.54
2018-06-19T01:02:31.666Z,62.85
2018-06-19T01:03:32.138Z,62.76
2018-06-19T01:04:32.609Z,62.67
2018-06-19T01:05:33.081Z,62.61
2018-06-19T01:06:33.551Z,62.73
2018-06-19T01:07:34.028Z,62.87
2018-06-19T01:08:34.495Z,62.84
2018-06-19T01:09:34.965Z,62.84
2018-06-19T01:10:35.437Z,62.92
2018-06-19T01:11:35.920Z,63.00
2018-06-19T01:12:36.383Z,62.86
2018-06-19T01:13:36.855Z,63.03
2018-06-19T01:14:37.328Z,63.02
2018-06-19T01:15:37.803Z,63.00
2018-06-19T01:16:38.275Z,62.88
2018-06-19T01:17:38.745Z,62.88
2018-06-19T01:18:39.219Z,62.91
2018-06-19T01:19:39.694Z,62.85
2018-06-19T01:20:40.169Z,62.96
2018-06-19T01:21:40.640Z,62.91
2018-06-19T01:22:41.114Z,62.96
2018-06-19T01:23:41.589Z,62.99
2018-06-19T01:24:42.064Z,62.96
2018-06-19T01:25:42.539Z,62.99
2018-06-19T01:26:43.012Z,62.99
2018-06-19T01:27:43.487Z,63.15
2018-06-19T01:28:44.045Z,63.37
2018-06-19T01:29:44.434Z,63.26
2018-06-19T01:30:44.908Z,63.40
2018-06-19T01:31:45.433Z,63.34
2018-06-19T01:32:45.861Z,63.26
2018-06-19T01:33:46.332Z,63.20
2018-06-19T01:34:46.806Z,63.09
2018-06-19T01:35:47.283Z,63.17
2018-06-19T01:36:47.755Z,63.23
2018-06-19T01:37:48.230Z,63.23
2018-06-19T01:38:48.703Z,63.22
2018-06-19T01:39:49.181Z,63.28
2018-06-19T01:40:49.653Z,63.25
2018-06-19T01:41:50.181Z,63.28
2018-06-19T01:42:50.598Z,63.39
2018-06-19T01:43:51.073Z,63.50
2018-06-19T01:44:51.544Z,63.33
2018-06-19T01:45:52.019Z,63.53
2018-06-19T01:46:52.541Z,63.61
2018-06-19T01:47:52.964Z,63.49
2018-06-19T01:48:53.437Z,63.49
2018-06-19T01:49:53.915Z,63.49
2018-06-19T01:50:54.378Z,63.52
2018-06-19T01:51:54.850Z,63.65
2018-06-19T01:52:55.322Z,63.87
2018-06-19T01:53:55.794Z,63.79
2018-06-19T01:54:56.266Z,63.73
2018-06-19T01:55:56.738Z,63.70
2018-06-19T01:56:57.263Z,63.76
2018-06-19T01:57:57.679Z,63.84
2018-06-19T01:58:58.149Z,63.78
2018-06-19T01:59:58.630Z,63.87
2018-06-19T02:00:59.096Z,63.84
2018-06-19T02:01:59.563Z,63.89
2018-06-19T02:03:00.033Z,63.89
2018-06-19T02:04:00.506Z,63.89
2018-06-19T02:05:00.974Z,63.77
2018-06-19T02:06:01.446Z,63.88
2018-06-19T02:07:01.967Z,63.83
2018-06-19T02:08:02.393Z,63.83
2018-06-19T02:09:02.859Z,63.86
2018-06-19T02:10:03.331Z,63.83
2018-06-19T02:11:03.799Z,63.90
2018-06-19T02:12:04.273Z,64.02
2018-06-19T02:13:04.745Z,63.96
2018-06-19T02:14:05.215Z,64.04
2018-06-19T02:15:05.686Z,63.99
2018-06-19T02:16:06.156Z,64.01
2018-06-19T02:17:06.683Z,63.93
2018-06-19T02:18:07.101Z,63.98
2018-06-19T02:19:07.572Z,64.04
2018-06-19T02:20:08.045Z,64.12
2018-06-19T02:21:08.518Z,64.09
2018-06-19T02:22:08.989Z,64.09
2018-06-19T02:23:09.461Z,63.95
2018-06-19T02:24:09.937Z,64.00
2018-06-19T02:25:10.407Z,64.06
2018-06-19T02:26:10.879Z,64.14
2018-06-19T02:27:11.351Z,64.11
2018-06-19T02:28:11.826Z,64.02
2018-06-19T02:29:12.298Z,64.22
2018-06-19T02:30:12.773Z,64.38
2018-06-19T02:31:13.245Z,64.63
2018-06-19T02:32:13.721Z,64.49
2018-06-19T02:33:14.198Z,64.63
2018-06-19T02:34:14.667Z,64.47
2018-06-19T02:35:15.141Z,64.46
2018-06-19T02:36:15.615Z,64.49
2018-06-19T02:37:16.094Z,64.57
2018-06-19T02:38:16.564Z,64.55
2018-06-19T02:39:17.040Z,64.60
2018-06-19T02:40:17.517Z,64.71
2018-06-19T02:41:17.988Z,64.66
2018-06-19T02:42:18.514Z,64.74
2018-06-19T02:43:18.937Z,64.68
2018-06-19T02:44:19.414Z,64.57
2018-06-19T02:45:19.886Z,64.59
2018-06-19T02:46:20.359Z,64.54
2018-06-19T02:47:20.837Z,64.68
2018-06-19T02:48:21.308Z,64.67
2018-06-19T02:49:21.783Z,64.67
2018-06-19T02:50:22.255Z,64.67
2018-06-19T02:51:22.734Z,64.75
2018-06-19T02:52:23.202Z,64.84
2018-06-19T02:53:23.678Z,64.81
2018-06-19T02:54:24.149Z,64.78
2018-06-19T02:55:24.622Z,64.80
2018-06-19T02:56:25.096Z,64.97
2018-06-19T02:57:25.567Z,64.94
2018-06-19T02:58:26.041Z,64.80
2018-06-19T02:59:26.513Z,64.77
2018-06-19T03:00:27.052Z,64.88
2018-06-19T03:01:27.458Z,65.07
2018-06-19T03:02:27.926Z,64.96
2018-06-19T03:03:28.399Z,64.90
2018-06-19T03:04:28.870Z,64.80
2018-06-19T03:05:29.342Z,64.99
2018-06-19T03:07:30.335Z,65.15
2018-06-19T03:08:30.755Z,65.20
2018-06-19T03:09:31.225Z,65.18
2018-06-19T03:10:31.696Z,65.45
2018-06-19T03:11:32.170Z,65.31
2018-06-19T03:12:32.698Z,65.45
2018-06-19T03:13:33.114Z,65.39
2018-06-19T03:14:33.578Z,65.50
2018-06-19T03:15:34.049Z,65.53
2018-06-19T03:16:34.520Z,65.39
2018-06-19T03:17:35.042Z,65.31
2018-06-19T03:18:35.463Z,65.30
2018-06-19T03:19:35.934Z,65.44
2018-06-19T03:20:36.408Z,65.36
2018-06-19T03:21:36.876Z,65.30
2018-06-19T03:22:37.346Z,65.27
2018-06-19T03:23:37.818Z,65.27
2018-06-19T03:24:38.289Z,65.41
2018-06-19T03:25:38.762Z,65.46
2018-06-19T03:26:39.234Z,65.49
2018-06-19T03:27:39.704Z,65.54
2018-06-19T03:28:40.175Z,65.57
2018-06-19T03:29:40.649Z,65.68
2018-06-19T03:30:41.120Z,65.57
2018-06-19T03:31:41.595Z,65.62
2018-06-19T03:32:42.066Z,65.79
2018-06-19T03:33:42.537Z,65.67
2018-06-19T03:34:43.011Z,65.73
2018-06-19T03:35:43.485Z,65.78
2018-06-19T03:36:43.958Z,65.86
2018-06-19T03:37:44.428Z,65.78
2018-06-19T03:38:44.902Z,65.75
2018-06-19T03:39:45.377Z,65.92
2018-06-19T03:40:45.853Z,66.00
2018-06-19T03:41:46.323Z,66.08
2018-06-19T03:42:46.797Z,66.11
2018-06-19T03:43:47.271Z,66.14
2018-06-19T03:44:47.745Z,66.19
2018-06-19T03:45:48.219Z,66.11
2018-06-19T03:46:48.693Z,66.11
2018-06-19T03:47:49.217Z,66.16
2018-06-19T03:48:49.641Z,66.35
2018-06-19T03:49:50.116Z,66.24
2018-06-19T03:50:50.590Z,66.35
2018-06-19T03:51:51.065Z,66.38
2018-06-19T03:52:51.591Z,66.65
2018-06-19T03:53:52.014Z,66.43
2018-06-19T03:54:52.490Z,66.43
2018-06-19T03:55:52.961Z,66.46
2018-06-19T03:56:53.436Z,66.51
2018-06-19T03:57:53.960Z,66.59
2018-06-19T03:58:54.385Z,66.51
2018-06-19T03:59:54.856Z,66.53
2018-06-19T04:00:55.333Z,66.46
2018-06-19T04:01:55.806Z,66.51
2018-06-19T04:02:56.278Z,66.54
2018-06-19T04:03:56.753Z,66.48
2018-06-19T04:04:57.224Z,66.54
2018-06-19T04:05:57.697Z,66.51
2018-06-19T04:06:58.171Z,66.51
2018-06-19T04:07:58.694Z,66.54
2018-06-19T04:08:59.114Z,66.48
2018-06-19T04:09:59.589Z,66.40
2018-06-19T04:11:00.058Z,66.43
2018-06-19T04:12:00.529Z,66.48
2018-06-19T04:13:01.054Z,66.48
2018-06-19T04:14:01.474Z,66.48
2018-06-19T04:15:01.946Z,66.45
2018-06-19T04:16:02.417Z,66.45
2018-06-19T04:17:02.889Z,66.42
2018-06-19T04:18:03.411Z,66.50
2018-06-19T04:19:03.829Z,66.42
2018-06-19T04:20:04.298Z,66.48
2018-06-19T04:21:04.770Z,66.64
2018-06-19T04:22:05.241Z,66.56
2018-06-19T04:23:05.845Z,66.64
2018-06-19T04:24:06.187Z,66.50
2018-06-19T04:25:06.655Z,66.50
2018-06-19T04:26:07.125Z,66.48
2018-06-19T04:27:07.594Z,66.47
2018-06-19T04:28:08.067Z,66.42
2018-06-19T04:29:08.538Z,66.47
2018-06-19T04:30:09.012Z,66.44
2018-06-19T04:31:09.478Z,66.44
2018-06-19T04:32:09.951Z,66.36
2018-06-19T04:33:10.423Z,66.31
2018-06-19T04:34:10.893Z,66.33
2018-06-19T04:35:11.409Z,66.26
2018-06-19T04:36:11.839Z,66.17
2018-06-19T04:37:12.309Z,66.17
2018-06-19T04:38:12.832Z,66.20
2018-06-19T04:39:13.252Z,66.14
2018-06-19T04:40:13.725Z,66.14
2018-06-19T04:41:14.196Z,66.12
2018-06-19T04:42:14.669Z,66.12
2018-06-19T04:43:15.140Z,66.17
2018-06-19T04:44:15.616Z,66.14
2018-06-19T04:45:16.087Z,66.14
2018-06-19T04:46:16.562Z,66.06
2018-06-19T04:47:17.032Z,66.09
2018-06-19T04:48:17.512Z,66.12
2018-06-19T04:49:17.981Z,66.20
2018-06-19T04:50:18.456Z,66.12
2018-06-19T04:51:18.928Z,66.04
2018-06-19T04:52:19.401Z,66.06
2018-06-19T04:53:19.875Z,66.23
2018-06-19T04:54:20.349Z,66.23
2018-06-19T04:55:20.826Z,66.23
2018-06-19T04:56:21.301Z,66.17
2018-06-19T04:57:21.775Z,66.12
2018-06-19T04:58:22.252Z,66.18
2018-06-19T04:59:22.721Z,66.09
2018-06-19T05:00:23.202Z,66.18
2018-06-19T05:01:23.672Z,66.07
2018-06-19T05:02:24.147Z,65.93
2018-06-19T05:03:24.673Z,65.99
2018-06-19T05:04:25.095Z,65.99
2018-06-19T05:05:25.570Z,65.90
2018-06-19T05:06:26.045Z,65.96
2018-06-19T05:07:26.517Z,65.85
2018-06-19T05:08:26.993Z,65.90
2018-06-19T05:09:27.465Z,65.90
2018-06-19T05:10:27.939Z,65.96
2018-06-19T05:11:28.412Z,65.90
2018-06-19T05:12:28.888Z,65.90
2018-06-19T05:13:29.359Z,65.90
2018-06-19T05:14:29.832Z,65.85
2018-06-19T05:15:30.305Z,65.88
2018-06-19T05:16:30.781Z,65.82
2018-06-19T05:17:31.250Z,65.80
2018-06-19T05:18:31.777Z,65.88
2018-06-19T05:19:32.194Z,65.77
2018-06-19T05:20:32.667Z,65.88
2018-06-19T05:21:33.141Z,65.80
2018-06-19T05:22:33.612Z,65.77
2018-06-19T05:23:34.135Z,65.85
2018-06-19T05:24:34.555Z,65.85
2018-06-19T05:25:35.028Z,65.85
2018-06-19T05:26:35.498Z,65.91
2018-06-19T05:27:35.969Z,65.85
2018-06-19T05:28:36.438Z,65.80
2018-06-19T05:29:36.911Z,65.85
2018-06-19T05:30:37.382Z,65.86
2018-06-19T05:31:37.855Z,65.86
2018-06-19T05:32:38.322Z,65.88
2018-06-19T05:33:38.848Z,65.86
2018-06-19T05:34:39.265Z,65.86
2018-06-19T05:35:39.734Z,65.83
2018-06-19T05:36:40.212Z,65.86
2018-06-19T05:37:40.679Z,65.81
2018-06-19T05:38:41.199Z,65.81
2018-06-19T05:39:41.619Z,65.81
2018-06-19T05:40:42.092Z,65.81
2018-06-19T05:41:42.561Z,65.84
2018-06-19T05:42:43.035Z,65.84
2018-06-19T05:43:43.504Z,65.89
2018-06-19T05:44:43.981Z,65.87
2018-06-19T05:45:44.449Z,65.84
2018-06-19T05:46:44.922Z,65.84
2018-06-19T05:47:45.393Z,65.81
2018-06-19T05:48:45.915Z,65.79
2018-06-19T05:49:46.339Z,65.87
2018-06-19T05:50:46.810Z,65.93
2018-06-19T05:51:47.288Z,66.01
2018-06-19T05:52:47.792Z,66.01
2018-06-19T05:53:48.279Z,66.01
2018-06-19T05:54:48.704Z,66.02
2018-06-19T05:55:49.176Z,66.10
2018-06-19T05:56:49.650Z,66.15
2018-06-19T05:57:50.123Z,66.13
2018-06-19T05:58:50.597Z,66.19
2018-06-19T05:59:51.071Z,66.16
2018-06-19T06:00:51.544Z,66.13
2018-06-19T06:01:52.019Z,66.19
2018-06-19T06:02:52.495Z,66.14
2018-06-19T06:03:52.969Z,66.14
2018-06-19T06:04:53.448Z,66.12
2018-06-19T06:05:54.090Z,66.07
2018-06-19T06:06:54.391Z,66.07
2018-06-19T06:07:54.865Z,66.10
2018-06-19T06:08:55.342Z,65.99
2018-06-19T06:09:55.817Z,65.94
2018-06-19T06:10:56.293Z,65.91
2018-06-19T06:11:56.765Z,65.84
2018-06-19T06:12:57.239Z,65.81
2018-06-19T06:13:57.715Z,65.84
2018-06-19T06:14:58.190Z,65.84
2018-06-19T06:15:58.667Z,65.73
2018-06-19T06:16:59.141Z,65.68
2018-06-19T06:17:59.613Z,65.63
2018-06-19T06:19:00.086Z,65.56
2018-06-19T06:20:00.567Z,65.53
2018-06-19T06:21:01.035Z,65.51
2018-06-19T06:22:01.522Z,65.46
2018-06-19T06:23:01.983Z,65.44
2018-06-19T06:24:02.458Z,65.55
2018-06-19T06:25:02.928Z,65.48
2018-06-19T06:26:03.401Z,65.34
2018-06-19T06:27:03.876Z,65.29
2018-06-19T06:28:04.348Z,65.29
2018-06-19T06:29:04.819Z,65.27
2018-06-19T06:30:05.291Z,65.27
2018-06-19T06:31:05.765Z,65.19
2018-06-19T06:32:06.235Z,65.17
2018-06-19T06:33:06.713Z,65.09
2018-06-19T06:34:07.233Z,65.07
2018-06-19T06:35:07.652Z,64.99
2018-06-19T06:36:08.123Z,64.96
2018-06-19T06:37:08.641Z,64.94
2018-06-19T06:38:09.066Z,64.92
2018-06-19T06:39:09.590Z,64.87
2018-06-19T06:40:10.009Z,64.84
2018-06-19T06:41:10.481Z,64.84
2018-06-19T06:42:10.951Z,64.82
2018-06-19T06:43:11.422Z,64.80
2018-06-19T06:44:11.944Z,64.80
2018-06-19T06:45:12.366Z,64.81
2018-06-19T06:46:12.841Z,64.81
2018-06-19T06:47:13.308Z,64.87
2018-06-19T06:48:13.778Z,64.82
2018-06-19T06:49:14.250Z,64.82
2018-06-19T06:50:14.789Z,64.77
2018-06-19T06:51:15.195Z,64.75
2018-06-19T06:52:15.667Z,64.70
2018-06-19T06:53:16.136Z,64.67
2018-06-19T06:54:16.671Z,64.60
2018-06-19T06:55:17.088Z,64.57
2018-06-19T06:56:17.556Z,64.55
2018-06-19T06:57:18.031Z,64.52
2018-06-19T06:58:18.501Z,64.53
2018-06-19T06:59:19.024Z,64.47
2018-06-19T07:00:19.447Z,64.48
2018-06-19T07:01:19.920Z,64.37
2018-06-19T07:02:20.399Z,64.34
2018-06-19T07:03:20.867Z,64.35
2018-06-19T07:04:21.341Z,64.29
2018-06-19T07:05:21.815Z,64.32
2018-06-19T07:06:22.289Z,64.24
2018-06-19T07:07:22.764Z,64.19
2018-06-19T07:08:23.239Z,64.20
2018-06-19T07:09:23.713Z,64.20
2018-06-19T07:10:24.187Z,64.23
2018-06-19T07:11:24.662Z,64.29
2018-06-19T07:12:25.141Z,64.21
2018-06-19T07:13:25.681Z,64.16
2018-06-19T07:14:26.138Z,64.11
2018-06-19T07:15:26.562Z,64.08
2018-06-19T07:16:27.036Z,64.14
2018-06-19T07:17:27.512Z,64.11
2018-06-19T07:18:27.993Z,64.15
2018-06-19T07:19:28.492Z,64.04
2018-06-19T07:20:28.938Z,64.04
2018-06-19T07:21:29.413Z,64.02
2018-06-19T07:22:29.892Z,63.99
2018-06-19T07:23:30.362Z,63.94
2018-06-19T07:24:30.889Z,63.89
2018-06-19T07:25:31.312Z,63.92
2018-06-19T07:26:31.788Z,63.92
2018-06-19T07:27:32.260Z,63.95
2018-06-19T07:28:32.732Z,63.90
2018-06-19T07:29:33.256Z,63.82
2018-06-19T07:30:33.681Z,63.79
2018-06-19T07:31:34.156Z,63.83
2018-06-19T07:32:34.629Z,63.83
2018-06-19T07:33:35.102Z,63.78
2018-06-19T07:34:35.575Z,63.70
2018-06-19T07:35:36.050Z,63.70
2018-06-19T07:36:36.520Z,63.68
2018-06-19T07:37:36.992Z,63.69
2018-06-19T07:38:37.465Z,63.64
2018-06-19T07:39:38.139Z,63.67
2018-06-19T07:40:38.414Z,63.67
2018-06-19T07:41:38.883Z,63.68
2018-06-19T07:42:39.354Z,63.77
2018-06-19T07:43:39.829Z,63.86
2018-06-19T07:44:40.347Z,63.95
2018-06-19T07:46:41.241Z,64.10
2018-06-19T07:47:41.714Z,64.17
2018-06-19T07:48:42.185Z,64.20
2018-06-19T07:49:42.670Z,64.30
2018-06-19T07:50:43.132Z,64.30
2018-06-19T07:51:43.599Z,64.37
2018-06-19T07:52:44.072Z,64.52
2018-06-19T07:53:44.542Z,64.41
2018-06-19T07:54:45.016Z,64.23
2018-06-19T07:55:45.489Z,64.24
2018-06-19T07:56:45.958Z,64.08
2018-06-19T07:57:46.430Z,64.01
2018-06-19T07:58:46.902Z,63.88
2018-06-19T07:59:47.408Z,63.75
2018-06-19T08:00:47.847Z,63.68
2018-06-19T08:01:48.320Z,63.63
2018-06-19T08:02:48.791Z,63.58
2018-06-19T08:03:49.265Z,63.48
2018-06-19T08:04:49.738Z,63.38
2018-06-19T08:05:50.214Z,63.30
2018-06-19T08:06:50.686Z,63.26
2018-06-19T08:07:51.159Z,63.21
2018-06-19T08:08:51.631Z,63.14
2018-06-19T08:09:52.156Z,63.12
2018-06-19T08:10:52.582Z,63.04
2018-06-19T08:11:53.055Z,63.00
2018-06-19T08:12:53.534Z,62.93
2018-06-19T08:13:54.004Z,62.85
2018-06-19T08:14:54.528Z,62.77
2018-06-19T08:15:54.954Z,62.67
2018-06-19T08:16:55.429Z,62.60
2018-06-19T08:17:55.904Z,62.58
2018-06-19T08:18:56.381Z,62.48
2018-06-19T08:19:56.857Z,62.43
2018-06-19T08:20:57.331Z,62.36
2018-06-19T08:21:57.806Z,62.34
2018-06-19T08:22:58.286Z,62.18
2018-06-19T08:23:58.760Z,62.19
2018-06-19T08:24:59.236Z,62.11
2018-06-19T08:25:59.711Z,62.01
2018-06-19T08:27:00.188Z,61.93
2018-06-19T08:28:00.666Z,61.83
2018-06-19T08:29:01.137Z,61.78
2018-06-19T08:30:01.620Z,61.71
2018-06-19T08:31:02.090Z,61.66
2018-06-19T08:32:02.566Z,61.58
2018-06-19T08:33:03.049Z,61.51
2018-06-19T08:34:03.516Z,61.32
2018-06-19T08:35:03.994Z,61.30
2018-06-19T08:36:04.470Z,61.20
2018-06-19T08:37:04.941Z,61.01
2018-06-19T08:38:05.417Z,60.73
2018-06-19T08:39:05.890Z,60.48
2018-06-19T08:40:06.417Z,60.26
2018-06-19T08:41:06.840Z,60.24
2018-06-19T08:42:07.314Z,60.08
2018-06-19T08:43:07.794Z,59.94
2018-06-19T08:44:08.264Z,59.81
2018-06-19T08:45:08.768Z,59.64
2018-06-19T08:46:09.212Z,59.63
2018-06-19T08:47:09.686Z,59.31
2018-06-19T08:48:10.159Z,59.27
2018-06-19T08:49:10.638Z,59.40
2018-06-19T08:50:11.161Z,59.30
2018-06-19T08:51:11.582Z,59.10
2018-06-19T08:52:12.056Z,58.79
2018-06-19T08:53:12.531Z,58.92
2018-06-19T08:54:13.013Z,58.47
2018-06-19T08:55:13.507Z,58.21
2018-06-19T08:56:13.948Z,58.04
2018-06-19T08:57:14.427Z,58.00
2018-06-19T08:58:14.895Z,58.07
2018-06-19T08:59:15.369Z,57.82
2018-06-19T09:00:15.892Z,57.48
2018-06-19T09:01:16.314Z,57.49
2018-06-19T09:02:16.789Z,57.24
2018-06-19T09:03:17.264Z,56.90
2018-06-19T09:04:17.734Z,56.61
2018-06-19T09:05:18.205Z,56.42
2018-06-19T09:06:18.678Z,56.26
2018-06-19T09:07:19.151Z,55.88
2018-06-19T09:08:19.624Z,55.74
2018-06-19T09:09:20.097Z,55.48
2018-06-19T09:10:20.568Z,55.32
2018-06-19T09:11:21.044Z,55.09
2018-06-19T09:12:21.513Z,54.98
2018-06-19T09:13:21.990Z,54.75
2018-06-19T09:14:22.460Z,54.55
2018-06-19T09:15:22.981Z,54.38
2018-06-19T09:16:23.402Z,54.18
2018-06-19T09:17:23.875Z,53.97
2018-06-19T09:18:24.349Z,53.77
2018-06-19T09:19:24.821Z,53.54
2018-06-19T09:20:25.375Z,53.30
2018-06-19T09:21:25.763Z,53.13
2018-06-19T09:22:26.237Z,52.92
2018-06-19T09:23:26.707Z,52.81
2018-06-19T09:24:27.182Z,52.60
2018-06-19T09:25:27.659Z,52.64
2018-06-19T09:26:28.126Z,52.52
2018-06-19T09:27:28.602Z,52.44
2018-06-19T09:28:29.073Z,52.23
2018-06-19T09:29:29.550Z,51.99
2018-06-19T09:30:30.022Z,51.90
2018-06-19T09:31:30.506Z,52.00
2018-06-19T09:32:30.971Z,51.82
2018-06-19T09:33:31.445Z,51.88
2018-06-19T09:34:31.919Z,51.92
2018-06-19T09:35:32.396Z,51.80
2018-06-19T09:36:32.876Z,51.86
2018-06-19T09:37:33.346Z,51.89
2018-06-19T09:38:33.822Z,51.93
2018-06-19T09:39:34.300Z,51.93
2018-06-19T09:40:34.774Z,51.84
2018-06-19T09:41:35.251Z,51.78
2018-06-19T09:42:35.728Z,51.78
2018-06-19T09:43:36.204Z,51.56
2018-06-19T09:44:36.682Z,51.56
2018-06-19T09:45:37.157Z,51.82
2018-06-19T09:46:37.637Z,51.69
2018-06-19T09:47:38.111Z,51.73
2018-06-19T09:48:38.595Z,51.67
2018-06-19T09:49:39.064Z,51.58
2018-06-19T09:50:39.542Z,51.42
2018-06-19T09:51:40.019Z,51.46
2018-06-19T09:52:40.495Z,50.96
2018-06-19T09:53:41.033Z,51.21
2018-06-19T09:54:41.449Z,51.34
2018-06-19T09:55:41.976Z,51.37
2018-06-19T09:56:42.406Z,51.40
2018-06-19T09:57:42.879Z,51.40
2018-06-19T09:58:43.357Z,51.46
2018-06-19T09:59:43.871Z,51.25
2018-06-19T10:00:44.310Z,51.31
2018-06-19T10:01:44.785Z,51.56
2018-06-19T10:02:45.263Z,51.62
2018-06-19T10:03:45.739Z,51.65
2018-06-19T10:04:46.216Z,51.72
2018-06-19T10:05:46.749Z,51.81
2018-06-19T10:06:47.168Z,51.91
2018-06-19T10:07:47.643Z,51.94
2018-06-19T10:08:48.121Z,51.91
2018-06-19T10:09:48.595Z,51.54
2018-06-19T10:10:49.077Z,51.73
2018-06-19T10:11:49.605Z,51.67
2018-06-19T10:12:50.023Z,51.67
2018-06-19T10:13:50.498Z,51.61
2018-06-19T10:14:50.975Z,51.55
2018-06-19T10:15:51.503Z,51.58
2018-06-19T10:16:51.925Z,51.37
2018-06-19T10:17:52.400Z,51.40
2018-06-19T10:18:52.882Z,51.22
2018-06-19T10:19:53.352Z,51.22
2018-06-19T10:20:53.830Z,51.26
2018-06-19T10:21:54.301Z,51.26
2018-06-19T10:22:54.778Z,51.20
2018-06-19T10:23:55.252Z,51.20
2018-06-19T10:24:55.726Z,51.18
2018-06-19T10:25:56.203Z,51.21
2018-06-19T10:26:56.677Z,51.18
2018-06-19T10:27:57.151Z,51.22
2018-06-19T10:28:57.628Z,51.28
2018-06-19T10:29:58.100Z,51.26
2018-06-19T10:30:58.626Z,51.32
2018-06-19T10:31:59.050Z,51.17
2018-06-19T10:32:59.525Z,51.14
2018-06-19T10:33:59.998Z,51.01
2018-06-19T10:35:00.536Z,51.11
2018-06-19T10:36:00.949Z,51.08
2018-06-19T10:37:01.423Z,51.21
2018-06-19T10:38:01.897Z,51.24
2018-06-19T10:39:02.372Z,51.37
2018-06-19T10:40:02.845Z,51.22
2018-06-19T10:41:03.319Z,51.38
2018-06-19T10:42:03.794Z,51.57
2018-06-19T10:43:04.268Z,51.57
2018-06-19T10:44:04.741Z,51.64
2018-06-19T10:45:05.217Z,51.58
2018-06-19T10:46:05.688Z,51.64
2018-06-19T10:47:06.166Z,51.67
2018-06-19T10:48:06.638Z,51.68
2018-06-19T10:49:07.113Z,51.62
2018-06-19T10:50:07.584Z,51.71
2018-06-19T10:51:08.059Z,51.84
2018-06-19T10:52:08.534Z,51.78
2018-06-19T10:53:09.012Z,51.81
2018-06-19T10:54:09.482Z,51.79
2018-06-19T10:55:09.956Z,51.76
2018-06-19T10:56:10.632Z,51.85
2018-06-19T10:57:10.905Z,51.76
2018-06-19T10:58:11.376Z,51.67
2018-06-19T10:59:11.851Z,51.45
2018-06-19T11:00:12.326Z,51.45
2018-06-19T11:01:12.850Z,51.42
2018-06-19T11:02:13.272Z,51.30
2018-06-19T11:03:13.748Z,51.42
2018-06-19T11:04:14.218Z,51.45
2018-06-19T11:05:14.694Z,51.39
2018-06-19T11:06:15.166Z,51.27
2018-06-19T11:07:15.695Z,51.40
2018-06-19T11:08:16.171Z,50.61
2018-06-19T11:09:16.588Z,50.89
2018-06-19T11:10:17.063Z,50.62
2018-06-19T11:11:17.540Z,50.52
2018-06-19T11:12:18.010Z,50.21
2018-06-19T11:13:18.482Z,50.78
2018-06-19T11:14:18.956Z,51.22
2018-06-19T11:15:19.430Z,51.13
2018-06-19T11:16:19.906Z,50.88
2018-06-19T11:17:20.376Z,51.04
2018-06-19T11:18:20.860Z,51.04
2018-06-19T11:19:21.324Z,51.17
2018-06-19T11:20:21.797Z,51.30
2018-06-19T11:21:22.313Z,51.24
2018-06-19T11:22:22.752Z,50.90
2018-06-19T11:23:23.218Z,51.05
2018-06-19T11:24:23.693Z,51.06
2018-06-19T11:25:24.168Z,51.09
2018-06-19T11:26:24.689Z,50.72
2018-06-19T11:27:25.112Z,50.63
2018-06-19T11:28:25.585Z,50.66
2018-06-19T11:29:26.060Z,50.79
2018-06-19T11:30:26.591Z,50.73
2018-06-19T11:31:27.006Z,50.48
2018-06-19T11:32:27.481Z,50.42
2018-06-19T11:33:27.965Z,50.42
2018-06-19T11:34:28.428Z,50.24
2018-06-19T11:35:28.901Z,50.21
2018-06-19T11:36:29.375Z,50.24
2018-06-19T11:37:29.848Z,50.09
2018-06-19T11:38:30.376Z,49.84
2018-06-19T11:39:30.797Z,49.55
2018-06-19T11:40:31.270Z,49.40
2018-06-19T11:41:31.745Z,49.18
2018-06-19T11:42:32.217Z,49.34
2018-06-19T11:43:32.836Z,49.03
2018-06-19T11:44:33.166Z,49.41
2018-06-19T11:45:33.639Z,49.48
2018-06-19T11:46:34.112Z,49.29
2018-06-19T11:47:34.590Z,48.98
2018-06-19T11:48:35.059Z,49.14
2018-06-19T11:49:35.535Z,49.33
2018-06-19T11:50:36.006Z,49.27
2018-06-19T11:51:36.533Z,49.24
2018-06-19T11:52:36.955Z,49.15
2018-06-19T11:53:37.430Z,49.37
2018-06-19T11:54:37.920Z,49.41
2018-06-19T11:55:38.376Z,49.54
2018-06-19T11:56:38.901Z,49.54
2018-06-19T11:57:39.326Z,49.35
2018-06-19T11:58:39.797Z,49.29
2018-06-19T11:59:40.272Z,49.13
2018-06-19T12:00:40.746Z,48.81
2018-06-19T12:01:41.220Z,49.10
2018-06-19T12:02:41.693Z,49.23
2018-06-19T12:03:42.167Z,49.49
2018-06-19T12:04:42.639Z,49.18
2018-06-19T12:05:43.115Z,48.80
2018-06-19T12:06:43.649Z,48.57
2018-06-19T12:07:44.062Z,48.32
2018-06-19T12:08:44.535Z,48.07
2018-06-19T12:09:45.013Z,47.84
2018-06-19T12:10:45.483Z,47.52
2018-06-19T12:11:46.010Z,48.33
2018-06-19T12:12:46.431Z,48.43
2018-06-19T12:13:46.905Z,48.21
2018-06-19T12:14:47.379Z,48.11
2018-06-19T12:15:47.856Z,47.92
2018-06-19T12:16:48.378Z,48.05
2018-06-19T12:17:48.802Z,48.15
2018-06-19T12:18:49.275Z,48.15
2018-06-19T12:19:49.749Z,48.16
2018-06-19T12:20:50.226Z,48.00
2018-06-19T12:21:50.748Z,47.71
2018-06-19T12:22:51.176Z,47.59
2018-06-19T12:23:51.716Z,47.27
2018-06-19T12:24:52.118Z,47.24
2018-06-19T12:25:52.594Z,47.30
2018-06-19T12:26:53.068Z,47.40
2018-06-19T12:27:53.541Z,47.50
2018-06-19T12:28:54.016Z,47.34
2018-06-19T12:29:54.490Z,46.47
2018-06-19T12:30:54.964Z,45.89
2018-06-19T12:31:55.438Z,45.57
2018-06-19T12:32:55.911Z,45.21
2018-06-19T12:33:56.385Z,45.21
2018-06-19T12:34:56.864Z,44.86
2018-06-19T12:35:57.335Z,45.22
2018-06-19T12:36:57.808Z,45.42
2018-06-19T12:37:58.283Z,45.32
2018-06-19T12:38:58.757Z,45.94
2018-06-19T12:39:59.232Z,46.04
2018-06-19T12:40:59.705Z,45.82
2018-06-19T12:42:00.180Z,45.85
2018-06-19T12:43:00.695Z,45.79
2018-06-19T12:44:01.129Z,45.63
2018-06-19T12:45:01.602Z,46.25
2018-06-19T12:46:02.080Z,46.25
2018-06-19T12:47:02.554Z,46.16
2018-06-19T12:48:03.027Z,46.06
2018-06-19T12:49:03.500Z,45.96
2018-06-19T12:50:03.981Z,46.19
2018-06-19T12:51:04.449Z,46.10
2018-06-19T12:52:04.924Z,46.20
2018-06-19T12:53:05.398Z,46.01
2018-06-19T12:54:05.873Z,46.14
2018-06-19T12:55:06.346Z,46.01
2018-06-19T12:56:06.821Z,46.11
2018-06-19T12:57:07.347Z,46.15
2018-06-19T12:58:07.772Z,45.63
2018-06-19T12:59:08.245Z,45.40
2018-06-19T13:00:08.721Z,45.24